Time;durP1;ratioP1;P1;durP2;ratioP2;P2;SDS_P1;SDS_P2;PMS_P1;PMS_P2;Temp;Humidity;BMP_temperature;BMP_pressure;BME280_temperature;BME280_humidity;BME280_pressure;Samples;Min_cycle;Max_cycle;Signal;HPM_P1;HPM_P2
2022/01/21 00:01:30;;;;;;;10.77;3.17;;;;;;;0.62;98.63;103308.25;5091470;28;20040;-67
2022/01/21 00:03:56;;;;;;;18.90;4.32;;;;;;;0.58;98.32;103305.88;5091217;28;20041;-67
2022/01/21 00:06:21;;;;;;;8.25;2.70;;;;;;;0.61;98.09;103317.06;5091427;28;20024;-67
2022/01/21 00:08:51;;;;;;;13.13;2.53;;;;;;;0.68;98.13;103316.78;5091192;28;20059;-67
2022/01/21 00:11:16;;;;;;;7.50;1.85;;;;;;;0.68;98.10;103320.25;5090257;28;20430;-67
2022/01/21 00:13:43;;;;;;;10.07;2.92;;;;;;;0.68;97.90;103309.72;5090025;28;20058;-67
2022/01/21 00:16:28;;;;;;;9.32;2.60;;;;;;;0.76;98.25;103314.63;5090091;28;20497;-68
2022/01/21 00:19:03;;;;;;;14.95;2.72;;;;;;;0.75;98.07;103324.28;5090273;28;20024;-67
2022/01/21 00:32:27;;;;;;;33.20;4.13;;;;;;;0.67;97.65;103299.31;5090580;28;20411;-68
2022/01/21 00:34:53;;;;;;;12.48;2.80;;;;;;;0.61;97.79;103309.19;5089650;28;20031;-67
2022/01/21 00:37:18;;;;;;;16.05;4.22;;;;;;;0.54;97.57;103302.50;5089322;28;20032;-67
2022/01/21 00:39:49;;;;;;;13.57;2.90;;;;;;;0.42;97.80;103310.97;5089751;28;20020;-67
2022/01/21 00:42:43;;;;;;;11.82;3.42;;;;;;;0.35;97.74;103310.38;5089892;28;20094;-67
2022/01/21 00:45:00;;;;;;;7.68;3.00;;;;;;;0.24;98.01;103315.25;5089534;28;20039;-67
2022/01/21 00:47:29;;;;;;;13.60;3.35;;;;;;;0.17;98.24;103325.16;5089840;28;20032;-67
2022/01/21 00:49:55;;;;;;;13.57;3.97;;;;;;;0.10;98.47;103320.25;5089774;28;20028;-67
2022/01/21 00:52:22;;;;;;;16.20;4.25;;;;;;;0.05;98.48;103314.34;5070211;28;20040;-67
2022/01/21 00:54:47;;;;;;;23.95;6.20;;;;;;;-0.07;98.92;103306.09;5070189;28;20043;-67
2022/01/21 00:57:13;;;;;;;11.02;3.22;;;;;;;-0.07;99.03;103313.97;5068965;28;20028;-67
2022/01/21 00:59:38;;;;;;;14.50;4.00;;;;;;;-0.13;99.28;103314.25;5070160;28;20029;-67
2022/01/21 01:02:04;;;;;;;10.65;2.85;;;;;;;-0.18;99.24;103316.22;5067632;28;20032;-67
2022/01/21 01:04:30;;;;;;;14.82;3.30;;;;;;;-0.16;99.34;103330.09;5071101;28;20035;-67
2022/01/21 01:06:55;;;;;;;15.27;3.20;;;;;;;-0.30;99.60;103296.59;5088168;28;20036;-67
2022/01/21 01:09:21;;;;;;;18.98;3.78;;;;;;;-0.17;99.77;103323.16;5047355;28;1198601;-67
2022/01/21 01:22:24;;;;;;;15.38;4.47;;;;;;;-0.27;99.90;103321.84;5090083;28;20126;-67
2022/01/21 01:30:00;;;;;;;13.57;2.80;;;;;;;-0.20;100.00;103310.19;5070746;28;20396;-67
2022/01/21 01:32:29;;;;;;;13.00;3.25;;;;;;;-0.15;100.00;103296.88;5070489;28;20050;-67
2022/01/21 01:34:54;;;;;;;14.90;5.18;;;;;;;-0.10;100.00;103289.66;5089406;28;20036;-67
2022/01/21 01:40:17;;;;;;;10.63;3.88;;;;;;;-0.04;100.00;103292.84;5089541;28;20097;-67
2022/01/21 01:50:42;;;;;;;11.02;2.45;;;;;;;-0.03;100.00;103302.44;5089861;28;20039;-67
2022/01/21 01:53:08;;;;;;;13.07;4.03;;;;;;;-0.04;100.00;103305.13;5089500;28;20032;-67
2022/01/21 01:55:35;;;;;;;10.60;2.80;;;;;;;-0.09;100.00;103294.81;5089479;28;20034;-67
2022/01/21 01:58:01;;;;;;;8.27;3.10;;;;;;;-0.16;99.93;103290.75;5089354;28;20085;-67
2022/01/21 02:00:27;;;;;;;8.80;2.92;;;;;;;-0.16;100.00;103296.00;5089421;28;20449;-67
2022/01/21 02:02:52;;;;;;;11.20;3.13;;;;;;;-0.17;100.00;103303.94;5089182;28;20028;-67
2022/01/21 02:05:17;;;;;;;8.07;3.45;;;;;;;-0.20;100.00;103314.56;5089351;28;20038;-67
2022/01/21 02:07:45;;;;;;;12.50;3.15;;;;;;;-0.27;100.00;103299.09;5088932;28;20467;-67
2022/01/21 02:10:11;;;;;;;12.80;3.65;;;;;;;-0.26;100.00;103311.28;5089009;28;20140;-67
2022/01/21 02:12:39;;;;;;;15.15;2.85;;;;;;;-0.22;100.00;103317.25;5087006;28;20484;-67
2022/01/21 02:15:05;;;;;;;6.07;1.85;;;;;;;-0.21;100.00;103311.06;5089269;28;20394;-67
2022/01/21 02:22:45;;;;;;;11.57;2.70;;;;;;;-0.22;100.00;103304.13;5089570;28;20088;-67
2022/01/21 02:25:20;;;;;;;11.05;3.03;;;;;;;-0.23;100.00;103303.28;5089142;28;20532;-67
2022/01/21 02:27:58;;;;;;;14.90;4.07;;;;;;;-0.24;100.00;103300.72;5089099;28;20089;-67
2022/01/21 02:30:25;;;;;;;12.05;3.00;;;;;;;-0.26;100.00;103305.19;5089133;28;20028;-67
2022/01/21 02:32:56;;;;;;;10.25;2.75;;;;;;;-0.26;100.00;103307.81;5088993;28;20475;-67
2022/01/21 02:35:23;;;;;;;13.65;2.85;;;;;;;-0.31;100.00;103297.53;5069622;28;20094;-67
2022/01/21 02:37:49;;;;;;;8.05;1.98;;;;;;;-0.27;100.00;103309.56;5088712;28;20020;-67
2022/01/21 02:40:16;;;;;;;7.07;1.83;;;;;;;-0.30;100.00;103301.84;5088475;28;20038;-67
2022/01/21 02:42:42;;;;;;;10.20;2.78;;;;;;;-0.35;100.00;103303.81;5089046;28;20028;-67
2022/01/21 02:45:09;;;;;;;9.20;3.35;;;;;;;-0.37;100.00;103303.00;5089007;28;20047;-67
2022/01/21 02:47:35;;;;;;;11.20;2.38;;;;;;;-0.39;100.00;103296.13;5089032;28;20637;-67
2022/01/21 02:50:00;;;;;;;6.88;1.95;;;;;;;-0.39;100.00;103293.50;5088845;28;20122;-67
2022/01/21 02:52:29;;;;;;;11.13;3.15;;;;;;;-0.42;100.00;103291.00;5088773;28;20750;-67
2022/01/21 02:54:55;;;;;;;11.85;2.40;;;;;;;-0.41;100.00;103300.59;5089019;28;20637;-67
2022/01/21 02:57:20;;;;;;;4.90;1.90;;;;;;;-0.45;100.00;103297.25;5088854;28;20107;-67
2022/01/21 02:59:46;;;;;;;9.68;3.80;;;;;;;-0.44;100.00;103301.59;5088878;28;20067;-67
2022/01/21 03:02:12;;;;;;;12.10;1.60;;;;;;;-0.45;100.00;103302.47;5088219;28;20024;-67
2022/01/21 03:05:01;;;;;;;4.75;1.58;;;;;;;-0.49;100.00;103309.63;5070370;28;20127;-67
2022/01/21 03:07:27;;;;;;;8.02;3.40;;;;;;;-0.46;100.00;103314.75;5088619;28;20032;-68
2022/01/21 03:09:52;;;;;;;9.05;1.75;;;;;;;-0.48;100.00;103310.47;5087719;28;20067;-67
2022/01/21 03:12:18;;;;;;;14.10;3.00;;;;;;;-0.53;100.00;103313.28;5088295;28;20052;-67
2022/01/21 03:14:43;;;;;;;15.68;3.17;;;;;;;-0.58;100.00;103309.16;5088791;28;20070;-68
2022/01/21 03:17:09;;;;;;;9.48;2.10;;;;;;;-0.64;100.00;103314.66;5088771;28;20027;-67
2022/01/21 03:19:34;;;;;;;9.55;2.13;;;;;;;-0.71;100.00;103316.66;5088738;28;20035;-67
2022/01/21 03:22:01;;;;;;;4.65;1.80;;;;;;;-0.75;100.00;103317.72;5088674;28;20425;-67
2022/01/21 03:24:27;;;;;;;6.18;2.03;;;;;;;-0.82;100.00;103311.84;5089753;28;20609;-67
2022/01/21 03:26:52;;;;;;;9.23;2.28;;;;;;;-0.80;100.00;103319.66;5092342;28;20032;-67
2022/01/21 03:29:17;;;;;;;4.78;2.20;;;;;;;-0.82;100.00;103324.94;5092115;28;20395;-67
2022/01/21 03:31:43;;;;;;;8.65;2.45;;;;;;;-0.82;100.00;103321.47;5092168;28;20028;-67
2022/01/21 03:34:08;;;;;;;5.30;2.15;;;;;;;-0.83;100.00;103319.78;5091935;28;20037;-67
2022/01/21 03:36:33;;;;;;;8.27;2.42;;;;;;;-0.85;100.00;103317.22;5092047;28;20052;-67
2022/01/21 03:38:59;;;;;;;6.90;2.15;;;;;;;-0.88;100.00;103328.66;5092023;28;20110;-67
2022/01/21 03:41:24;;;;;;;10.25;2.85;;;;;;;-0.89;100.00;103321.75;5091429;28;20115;-67
2022/01/21 03:43:50;;;;;;;7.95;2.05;;;;;;;-0.94;100.00;103322.84;5091585;28;20054;-67
2022/01/21 03:46:17;;;;;;;7.72;2.60;;;;;;;-0.96;100.00;103333.38;5091746;28;20062;-67
2022/01/21 03:48:46;;;;;;;7.50;2.50;;;;;;;-0.97;100.00;103338.66;5091720;28;20028;-67
2022/01/21 03:51:12;;;;;;;4.85;1.75;;;;;;;-1.00;100.00;103326.53;5091892;28;20483;-67
2022/01/21 03:53:37;;;;;;;5.00;2.15;;;;;;;-0.97;100.00;103329.06;5091721;28;20039;-67
2022/01/21 03:56:03;;;;;;;8.85;2.17;;;;;;;-0.99;100.00;103336.09;5091665;28;20111;-67
2022/01/21 03:58:28;;;;;;;8.13;2.70;;;;;;;-1.02;100.00;103335.34;5091680;28;20086;-67
2022/01/21 04:00:55;;;;;;;4.82;1.85;;;;;;;-1.03;100.00;103334.50;5091589;28;20462;-67
2022/01/21 04:03:22;;;;;;;7.38;2.30;;;;;;;-1.06;100.00;103325.94;5091364;28;20078;-67
2022/01/21 04:05:47;;;;;;;8.43;2.35;;;;;;;-1.06;100.00;103334.63;5071935;28;20048;-67
2022/01/21 04:08:13;;;;;;;8.25;1.77;;;;;;;-1.06;100.00;103328.53;5072171;28;20945;-67
2022/01/21 04:10:41;;;;;;;12.15;3.17;;;;;;;-1.07;100.00;103332.06;5091305;28;20523;-67
2022/01/21 04:13:15;;;;;;;6.57;1.63;;;;;;;-1.09;100.00;103319.03;5091347;28;20032;-67
2022/01/21 04:15:55;;;;;;;8.77;2.10;;;;;;;-1.09;100.00;103329.53;5091381;28;20031;-67
2022/01/21 04:18:22;;;;;;;9.65;2.40;;;;;;;-1.09;100.00;103311.19;5091170;28;20055;-67
2022/01/21 04:20:48;;;;;;;8.00;2.50;;;;;;;-1.11;100.00;103313.84;5091202;28;20032;-67
2022/01/21 04:23:17;;;;;;;7.40;2.65;;;;;;;-1.14;100.00;103313.97;5091336;28;20034;-67
2022/01/21 04:25:43;;;;;;;17.90;5.07;;;;;;;-1.15;100.00;103316.69;5091040;28;20664;-67
2022/01/21 04:28:09;;;;;;;6.07;2.63;;;;;;;-1.19;100.00;103313.31;5083890;28;20063;-67
2022/01/21 04:30:35;;;;;;;11.93;3.90;;;;;;;-1.17;100.00;103319.34;5071504;28;20075;-67
2022/01/21 04:33:00;;;;;;;9.95;2.08;;;;;;;-1.17;100.00;103315.88;5090833;28;20043;-66
2022/01/21 04:35:26;;;;;;;6.53;2.25;;;;;;;-1.20;100.00;103313.38;5090423;28;20036;-67
2022/01/21 04:37:57;;;;;;;11.68;3.20;;;;;;;-1.20;100.00;103309.00;5090426;28;20043;-67
2022/01/21 04:40:28;;;;;;;8.10;3.55;;;;;;;-1.19;100.00;103322.94;5090734;28;20410;-67
2022/01/21 04:48:21;;;;;;;5.40;1.98;;;;;;;-1.18;100.00;103322.00;5090937;28;20078;-67
2022/01/21 04:50:56;;;;;;;10.85;3.20;;;;;;;-1.18;100.00;103322.00;5090642;28;20118;-67
2022/01/21 04:53:22;;;;;;;10.35;3.30;;;;;;;-1.17;100.00;103321.09;5090471;28;20027;-67
2022/01/21 04:55:48;;;;;;;9.15;3.42;;;;;;;-1.21;100.00;103309.03;5090456;28;20024;-67
2022/01/21 04:58:14;;;;;;;11.95;2.88;;;;;;;-1.18;100.00;103306.28;5090452;28;20399;-67
2022/01/21 05:00:39;;;;;;;21.50;3.05;;;;;;;-1.15;100.00;103306.19;5090265;28;20031;-67
2022/01/21 05:03:05;;;;;;;6.57;2.63;;;;;;;-1.14;100.00;103298.25;5090552;28;20086;-67
2022/01/21 05:05:30;;;;;;;11.73;3.72;;;;;;;-1.11;100.00;103292.06;5089676;28;20032;-67
2022/01/21 05:07:59;;;;;;;10.13;4.28;;;;;;;-0.99;100.00;103303.84;5089077;28;20035;-67
2022/01/21 05:10:27;;;;;;;5.22;1.95;;;;;;;-0.93;100.00;103303.56;5090105;28;20449;-67
2022/01/21 05:12:53;;;;;;;7.38;2.40;;;;;;;-0.86;100.00;103309.41;5090095;28;20471;-67
2022/01/21 05:15:43;;;;;;;14.55;3.60;;;;;;;-0.83;100.00;103307.53;5090063;28;20034;-68
2022/01/21 05:18:08;;;;;;;9.02;3.20;;;;;;;-0.80;100.00;103309.19;5089216;28;20036;-67
2022/01/21 05:20:33;;;;;;;14.50;3.63;;;;;;;-0.78;100.00;103307.38;5089804;28;20043;-67
2022/01/21 05:22:59;;;;;;;6.40;2.15;;;;;;;-0.75;100.00;103315.94;5090206;28;20024;-67
2022/01/21 05:25:24;;;;;;;11.68;2.83;;;;;;;-0.82;100.00;103295.28;5089867;28;20052;-67
2022/01/21 05:27:51;;;;;;;4.38;1.80;;;;;;;-0.71;100.00;103311.41;5089876;28;20470;-67
2022/01/21 05:30:17;;;;;;;5.63;2.33;;;;;;;-0.69;100.00;103320.06;5089912;28;20065;-67
2022/01/21 05:32:43;;;;;;;9.30;2.28;;;;;;;-0.73;100.00;103314.13;5089510;28;20053;-67
2022/01/21 05:35:10;;;;;;;7.90;3.33;;;;;;;-0.76;100.00;103306.38;5089487;28;20035;-67
2022/01/21 05:37:36;;;;;;;6.90;2.17;;;;;;;-0.74;100.00;103311.53;5089655;28;20028;-67
2022/01/21 05:40:05;;;;;;;4.72;2.00;;;;;;;-0.78;100.00;103297.72;5089734;28;20057;-67
2022/01/21 05:42:33;;;;;;;8.77;2.67;;;;;;;-0.72;100.00;103309.72;5089619;28;20035;-67
2022/01/21 05:47:24;;;;;;;8.68;2.38;;;;;;;-0.69;100.00;103317.44;5089121;28;20028;-67
2022/01/21 05:49:50;;;;;;;10.45;3.38;;;;;;;-0.72;100.00;103309.72;5089347;28;20109;-68
2022/01/21 05:52:17;;;;;;;9.00;2.10;;;;;;;-0.80;100.00;103302.16;5089481;28;20028;-67
2022/01/21 05:54:45;;;;;;;4.75;2.50;;;;;;;-0.67;100.00;103310.38;5089472;28;20028;-68
2022/01/21 05:57:13;;;;;;;9.77;3.78;;;;;;;-0.62;100.00;103323.31;5089473;28;20024;-67
2022/01/21 05:59:39;;;;;;;6.95;1.92;;;;;;;-0.62;100.00;103324.16;5089561;28;20093;-68
2022/01/21 06:02:05;;;;;;;19.08;4.03;;;;;;;-0.61;100.00;103340.72;5089392;28;20476;-67
2022/01/21 06:04:32;;;;;;;9.55;3.30;;;;;;;-0.60;100.00;103338.06;5089590;28;20074;-67
2022/01/21 06:06:58;;;;;;;4.80;1.70;;;;;;;-0.59;100.00;103325.81;5089210;28;20027;-67
2022/01/21 06:09:23;;;;;;;10.80;2.83;;;;;;;-0.63;100.00;103332.06;5088827;28;20032;-67
2022/01/21 06:11:51;;;;;;;5.85;2.90;;;;;;;-0.70;100.00;103316.59;5087296;28;20042;-67
2022/01/21 06:14:16;;;;;;;11.02;2.63;;;;;;;-0.71;100.00;103332.38;5089164;28;20070;-67
2022/01/21 06:16:42;;;;;;;7.57;1.70;;;;;;;-0.77;100.00;103346.59;5089208;28;20465;-67
2022/01/21 06:19:07;;;;;;;6.80;2.58;;;;;;;-0.81;100.00;103349.38;5089274;28;20050;-67
2022/01/21 06:21:33;;;;;;;4.00;2.10;;;;;;;-0.85;100.00;103343.41;5087838;28;20047;-68
2022/01/21 06:23:58;;;;;;;6.75;2.60;;;;;;;-0.86;100.00;103339.09;5089268;28;20043;-67
2022/01/21 06:26:23;;;;;;;5.75;2.22;;;;;;;-0.89;100.00;103342.69;5088978;28;20039;-67
2022/01/21 06:28:49;;;;;;;17.63;3.58;;;;;;;-0.89;100.00;103345.31;5088729;28;20510;-67
2022/01/21 06:31:15;;;;;;;6.63;2.28;;;;;;;-0.88;100.00;103352.25;5089026;28;20077;-67
2022/01/21 06:33:40;;;;;;;7.43;2.15;;;;;;;-0.90;100.00;103364.53;5089117;28;20043;-67
2022/01/21 06:36:06;;;;;;;6.85;1.95;;;;;;;-0.90;100.00;103351.44;5089423;28;20613;-67
2022/01/21 06:38:31;;;;;;;5.28;2.42;;;;;;;-0.89;100.00;103370.66;5089130;28;20039;-67
2022/01/21 06:40:56;;;;;;;8.80;1.95;;;;;;;-0.85;100.00;103371.38;5088992;28;20020;-67
2022/01/21 06:43:22;;;;;;;10.25;2.40;;;;;;;-0.81;100.00;103380.81;5087762;28;20064;-67
2022/01/21 06:45:47;;;;;;;5.25;2.38;;;;;;;-0.77;100.00;103383.25;5088852;28;20387;-67
2022/01/21 06:48:13;;;;;;;9.35;2.50;;;;;;;-0.72;100.00;103383.09;5088298;28;20078;-67
2022/01/21 06:50:41;;;;;;;9.57;2.45;;;;;;;-0.64;100.00;103369.69;5088877;28;20161;-67
2022/01/21 06:53:08;;;;;;;10.57;2.78;;;;;;;-0.60;100.00;103380.00;5088970;28;20130;-67
2022/01/21 06:55:33;;;;;;;9.10;3.58;;;;;;;-0.51;100.00;103382.22;5087564;28;20115;-67
2022/01/21 06:57:59;;;;;;;15.82;3.00;;;;;;;-0.41;100.00;103377.47;5089005;28;20748;-67
2022/01/21 07:00:24;;;;;;;8.93;2.42;;;;;;;-0.32;100.00;103387.56;5091454;28;20499;-68
2022/01/21 07:02:51;;;;;;;14.00;3.80;;;;;;;-0.22;100.00;103388.06;5092689;28;20027;-67
2022/01/21 07:05:18;;;;;;;8.75;3.30;;;;;;;-0.13;100.00;103392.06;5092442;28;20055;-67
2022/01/21 07:07:44;;;;;;;11.90;3.65;;;;;;;-0.13;100.00;103390.31;5092061;28;20053;-67
2022/01/21 07:10:12;;;;;;;17.95;6.40;;;;;;;-0.01;100.00;103396.78;5092076;28;20053;-67
2022/01/21 07:12:38;;;;;;;12.80;4.68;;;;;;;0.00;100.00;103385.41;5091920;28;20447;-67
2022/01/21 07:15:09;;;;;;;8.93;3.40;;;;;;;0.09;100.00;103392.03;5090833;28;20061;-68
2022/01/21 07:17:34;;;;;;;10.05;2.85;;;;;;;0.13;100.00;103388.31;5092409;28;20061;-67
2022/01/21 07:20:01;;;;;;;9.40;4.03;;;;;;;0.16;100.00;103398.72;5092348;28;20039;-68
2022/01/21 07:22:26;;;;;;;9.15;3.22;;;;;;;0.20;100.00;103406.38;5092289;28;20455;-68
2022/01/21 07:24:52;;;;;;;9.23;2.60;;;;;;;0.26;100.00;103405.25;5092096;28;20039;-68
2022/01/21 07:27:17;;;;;;;15.45;3.47;;;;;;;0.28;100.00;103406.03;5092314;28;20077;-68
2022/01/21 07:29:43;;;;;;;8.85;2.63;;;;;;;0.32;100.00;103406.78;5090803;28;20032;-67
2022/01/21 07:32:08;;;;;;;8.40;2.60;;;;;;;0.40;100.00;103423.06;5092093;28;20558;-67
2022/01/21 07:34:34;;;;;;;8.27;3.05;;;;;;;0.43;100.00;103418.50;5092026;28;20027;-67
2022/01/21 07:37:00;;;;;;;6.72;2.40;;;;;;;0.48;100.00;103417.47;5091519;28;20123;-67
2022/01/21 07:39:25;;;;;;;9.45;3.35;;;;;;;0.53;100.00;103432.09;5091726;28;20040;-67
2022/01/21 07:41:51;;;;;;;10.35;2.25;;;;;;;0.54;100.00;103417.19;5091959;28;20063;-68
2022/01/21 07:44:16;;;;;;;5.32;2.85;;;;;;;0.62;100.00;103418.53;5091675;28;20399;-67
2022/01/21 07:46:44;;;;;;;8.98;4.15;;;;;;;0.67;100.00;103404.38;5091674;28;20024;-67
2022/01/21 07:49:14;;;;;;;8.32;3.50;;;;;;;0.71;100.00;103396.28;5091193;28;20032;-67
2022/01/21 07:51:41;;;;;;;5.82;2.88;;;;;;;0.71;100.00;103401.53;5091670;28;20056;-67
2022/01/21 07:54:07;;;;;;;10.95;3.30;;;;;;;0.72;100.00;103408.50;5091817;28;20066;-68
2022/01/21 07:56:33;;;;;;;9.23;3.22;;;;;;;0.75;100.00;103397.84;5072096;28;20060;-67
2022/01/21 07:59:01;;;;;;;7.28;3.35;;;;;;;0.78;100.00;103389.81;5091339;28;20027;-67
2022/01/21 08:01:26;;;;;;;8.55;2.70;;;;;;;0.80;100.00;103382.72;5091757;28;20031;-68
2022/01/21 08:03:53;;;;;;;7.90;3.70;;;;;;;0.77;100.00;103388.13;5091463;28;20028;-67
2022/01/21 08:06:18;;;;;;;10.80;3.65;;;;;;;0.74;100.00;103374.28;5091333;28;20483;-67
2022/01/21 08:08:44;;;;;;;5.05;2.80;;;;;;;0.73;100.00;103376.03;5091516;28;20032;-67
2022/01/21 08:11:09;;;;;;;10.27;3.38;;;;;;;0.73;100.00;103381.28;5091125;28;20091;-68
2022/01/21 08:13:34;;;;;;;14.32;3.10;;;;;;;0.69;100.00;103390.25;5089999;28;20024;-68
2022/01/21 08:16:00;;;;;;;13.00;3.80;;;;;;;0.68;100.00;103385.06;5091378;28;20462;-67
2022/01/21 08:18:26;;;;;;;10.07;5.18;;;;;;;0.64;100.00;103379.09;5091232;28;20112;-67
2022/01/21 08:20:51;;;;;;;11.73;3.97;;;;;;;0.63;100.00;103373.00;5071796;28;20123;-67
2022/01/21 08:23:17;;;;;;;13.07;4.85;;;;;;;0.65;100.00;103375.53;5071928;28;20024;-67
2022/01/21 08:25:43;;;;;;;14.00;4.55;;;;;;;0.62;100.00;103368.66;5071657;28;20029;-67
2022/01/21 08:28:08;;;;;;;8.20;3.40;;;;;;;0.65;100.00;103372.91;5071618;28;20032;-67
2022/01/21 08:30:34;;;;;;;9.55;5.50;;;;;;;0.64;100.00;103389.59;5071541;28;20475;-68
2022/01/21 08:33:00;;;;;;;12.80;4.22;;;;;;;0.66;100.00;103390.41;5070335;28;20530;-67
2022/01/21 08:35:26;;;;;;;12.40;4.25;;;;;;;0.67;100.00;103384.22;5071321;28;20139;-68
2022/01/21 08:37:52;;;;;;;13.98;5.43;;;;;;;0.71;100.00;103401.53;5071451;28;20476;-68
2022/01/21 08:40:19;;;;;;;12.07;4.15;;;;;;;0.79;100.00;103402.03;5071423;28;20032;-68
2022/01/21 08:42:44;;;;;;;9.10;4.70;;;;;;;0.88;100.00;103396.34;5071396;28;20025;-68
2022/01/21 08:45:11;;;;;;;14.88;5.78;;;;;;;0.93;100.00;103390.06;5071338;28;20066;-68
2022/01/21 08:47:38;;;;;;;9.10;4.07;;;;;;;0.88;100.00;103382.38;5071296;28;20066;-68
2022/01/21 08:50:07;;;;;;;15.70;5.43;;;;;;;0.88;100.00;103388.47;5090386;28;20134;-68
2022/01/21 08:52:36;;;;;;;9.02;5.00;;;;;;;0.90;100.00;103400.72;5089079;28;20894;-68
2022/01/21 08:55:07;;;;;;;9.50;4.47;;;;;;;0.92;100.00;103407.59;5090524;28;20834;-68
2022/01/21 08:57:34;;;;;;;12.40;4.60;;;;;;;0.94;100.00;103402.25;5090461;28;20115;-68
2022/01/21 09:00:00;;;;;;;16.55;6.78;;;;;;;0.91;100.00;103405.03;5090387;28;20475;-68
2022/01/21 09:02:26;;;;;;;7.47;4.15;;;;;;;0.90;100.00;103398.94;5090346;28;20031;-68
2022/01/21 09:04:51;;;;;;;11.35;5.30;;;;;;;0.93;100.00;103392.69;5090145;28;20036;-68
2022/01/21 09:07:16;;;;;;;9.65;4.60;;;;;;;0.93;100.00;103372.50;5090311;28;20467;-69
2022/01/21 09:09:42;;;;;;;13.82;5.07;;;;;;;0.94;100.00;103378.59;5089585;28;20036;-67
2022/01/21 09:12:07;;;;;;;10.50;3.70;;;;;;;0.99;100.00;103371.38;5090377;28;20027;-68
2022/01/21 09:14:33;;;;;;;9.60;4.75;;;;;;;1.04;100.00;103370.22;5090049;28;20069;-68
2022/01/21 09:16:59;;;;;;;14.75;5.45;;;;;;;1.14;100.00;103362.75;5090103;28;20085;-68
2022/01/21 09:19:26;;;;;;;10.70;4.47;;;;;;;1.30;100.00;103381.28;5090003;28;20032;-68
2022/01/21 09:21:52;;;;;;;11.23;4.30;;;;;;;1.43;100.00;103377.13;5089578;28;20094;-68
2022/01/21 09:24:18;;;;;;;15.88;4.22;;;;;;;1.54;100.00;103374.81;5090235;28;20028;-68
2022/01/21 09:26:44;;;;;;;11.32;4.55;;;;;;;1.70;100.00;103374.06;5089954;28;20027;-68
2022/01/21 09:29:10;;;;;;;18.48;5.55;;;;;;;1.79;100.00;103381.53;5089920;28;20496;-67
2022/01/21 09:31:35;;;;;;;11.27;4.30;;;;;;;1.90;100.00;103375.72;5089821;28;20040;-68
2022/01/21 09:34:01;;;;;;;10.75;3.55;;;;;;;1.94;100.00;103378.13;5089612;28;20605;-67
2022/01/21 09:36:27;;;;;;;10.18;4.45;;;;;;;2.10;100.00;103379.97;5089666;28;20043;-68
2022/01/21 09:38:52;;;;;;;15.45;5.80;;;;;;;2.20;100.00;103389.06;5088305;28;20115;-68
2022/01/21 09:41:18;;;;;;;13.63;3.63;;;;;;;2.26;100.00;103391.41;5088190;28;20119;-68
2022/01/21 09:43:50;;;;;;;5.05;3.25;;;;;;;2.37;100.00;103388.22;5089625;28;20531;-68
2022/01/21 09:46:16;;;;;;;6.18;2.65;;;;;;;2.46;100.00;103385.09;5089461;28;20067;-68
2022/01/21 09:48:53;;;;;;;9.55;3.40;;;;;;;2.55;100.00;103389.03;5089593;28;20436;-68
2022/01/21 09:51:18;;;;;;;9.65;2.88;;;;;;;2.61;100.00;103388.69;5069923;28;20034;-69
2022/01/21 09:53:44;;;;;;;11.10;3.10;;;;;;;2.68;99.50;103391.88;5088420;28;20115;-69
2022/01/21 09:56:14;;;;;;;10.30;2.65;;;;;;;2.68;99.61;103384.81;5089482;28;20467;-68
2022/01/21 09:58:42;;;;;;;12.23;3.38;;;;;;;2.82;99.29;103411.25;5089447;28;20587;-68
2022/01/21 10:01:09;;;;;;;10.50;4.03;;;;;;;2.89;98.86;103403.03;5089369;28;20035;-68
2022/01/21 10:03:35;;;;;;;6.30;3.22;;;;;;;2.92;98.55;103406.34;5089508;28;20070;-68
2022/01/21 10:06:02;;;;;;;7.65;2.35;;;;;;;3.01;98.48;103415.53;5089651;28;20081;-68
2022/01/21 10:08:28;;;;;;;6.68;3.28;;;;;;;3.08;98.32;103414.28;5089012;28;20387;-68
2022/01/21 10:10:54;;;;;;;10.80;2.60;;;;;;;3.16;97.93;103430.53;5088639;28;20048;-68
2022/01/21 10:13:20;;;;;;;10.93;3.30;;;;;;;3.25;97.14;103426.53;5089339;28;20040;-68
2022/01/21 10:15:47;;;;;;;9.57;2.67;;;;;;;3.34;96.95;103435.72;5089264;28;20020;-68
2022/01/21 10:18:18;;;;;;;10.70;3.72;;;;;;;3.39;96.16;103429.25;5087963;28;20036;-68
2022/01/21 10:21:10;;;;;;;6.03;2.75;;;;;;;3.52;96.53;103439.97;5089354;28;20039;-68
2022/01/21 10:23:37;;;;;;;14.15;3.33;;;;;;;3.62;96.63;103440.31;5068595;28;20028;-68
2022/01/21 10:26:05;;;;;;;8.70;3.13;;;;;;;3.69;95.78;103442.50;5089127;28;20051;-68
2022/01/21 10:28:31;;;;;;;12.02;2.30;;;;;;;3.78;96.00;103435.84;5089291;28;20531;-68
2022/01/21 10:31:10;;;;;;;11.18;3.47;;;;;;;3.86;94.38;103441.53;5069705;28;20119;-68
2022/01/21 10:33:42;;;;;;;9.73;3.67;;;;;;;3.87;94.42;103434.47;5068500;28;20013;-67
2022/01/21 10:36:21;;;;;;;8.65;2.45;;;;;;;3.94;94.11;103438.44;5092911;28;20039;-67
2022/01/21 10:38:49;;;;;;;7.75;2.15;;;;;;;4.01;93.41;103441.56;5093194;28;20085;-68
2022/01/21 10:41:16;;;;;;;7.47;2.25;;;;;;;4.12;93.35;103432.09;5093165;28;20020;-67
2022/01/21 10:43:43;;;;;;;13.80;3.65;;;;;;;4.29;92.69;103449.56;5093357;28;20126;-67
2022/01/21 10:46:15;;;;;;;9.95;3.60;;;;;;;4.39;92.62;103432.22;5093120;28;20062;-68
2022/01/21 10:48:58;;;;;;;6.55;2.13;;;;;;;4.57;92.78;103435.56;5093114;28;20097;-68
2022/01/21 10:51:26;;;;;;;11.55;2.47;;;;;;;4.70;91.65;103426.88;5092957;28;20056;-68
2022/01/21 10:53:53;;;;;;;12.35;2.50;;;;;;;4.79;91.63;103429.81;5091339;28;20024;-67
2022/01/21 10:56:19;;;;;;;9.23;2.00;;;;;;;4.89;91.56;103421.28;5092540;28;20478;-67
2022/01/21 10:58:51;;;;;;;9.40;1.90;;;;;;;4.95;90.98;103426.19;5090932;28;20073;-67
2022/01/21 11:01:22;;;;;;;6.25;1.75;;;;;;;5.02;90.15;103424.88;5092406;28;20073;-67
2022/01/21 11:04:05;;;;;;;9.75;2.35;;;;;;;5.05;89.95;103420.22;5092651;28;20042;-67
2022/01/21 11:06:39;;;;;;;10.93;3.83;;;;;;;5.01;89.50;103418.75;5086420;28;20036;-67
2022/01/21 11:09:23;;;;;;;6.90;2.83;;;;;;;5.02;90.33;103414.28;5092575;28;20364;-68
2022/01/21 11:12:12;;;;;;;9.02;2.35;;;;;;;4.97;91.63;103400.50;5091661;28;20139;-67
2022/01/21 11:14:54;;;;;;;7.20;2.40;;;;;;;4.87;91.34;103394.94;5092544;28;20058;-68
2022/01/21 11:17:20;;;;;;;;;;;;;;;4.84;92.94;103390.69;5093024;28;20016;-68
2022/01/21 11:20:08;;;;;;;7.57;3.83;;;;;;;4.86;92.07;103390.59;5092372;28;19916;-67
2022/01/21 11:22:53;;;;;;;8.90;2.92;;;;;;;4.90;92.42;103383.31;5092397;28;20032;-68
2022/01/21 11:25:39;;;;;;;8.27;1.90;;;;;;;4.96;92.44;103388.25;5092315;28;20039;-68
2022/01/21 11:28:04;;;;;;;16.30;2.47;;;;;;;5.09;92.46;103386.50;5092147;28;20479;-68
2022/01/21 11:30:29;;;;;;;8.35;1.80;;;;;;;5.14;92.10;103376.50;5092192;28;20042;-68
2022/01/21 11:32:55;;;;;;;9.07;1.98;;;;;;;5.13;91.17;103385.34;5092137;28;20042;-67
2022/01/21 11:35:20;;;;;;;11.43;3.47;;;;;;;5.02;92.71;103388.69;5091959;28;20123;-67
2022/01/21 11:37:48;;;;;;;5.82;1.77;;;;;;;4.92;93.00;103381.44;5091603;28;20151;-68
2022/01/21 11:40:13;;;;;;;6.45;2.50;;;;;;;4.91;93.62;103383.25;5091662;28;20360;-68
2022/01/21 11:42:39;;;;;;;12.10;2.35;;;;;;;4.92;93.33;103371.69;5091903;28;20028;-68
2022/01/21 11:45:18;;;;;;;7.40;1.98;;;;;;;5.00;94.02;103385.31;5091394;28;20032;-68
2022/01/21 11:48:11;;;;;;;11.88;2.63;;;;;;;5.05;93.42;103366.47;5091865;28;20032;-68
2022/01/21 11:50:36;;;;;;;7.88;2.72;;;;;;;5.11;93.72;103375.81;5091646;28;20048;-67
2022/01/21 11:53:01;;;;;;;2.67;1.38;;;;;;;5.11;93.49;103371.41;5091797;28;20032;-68
2022/01/21 11:55:37;;;;;;;8.35;2.00;;;;;;;5.10;92.52;103363.56;5091568;28;20031;-67
2022/01/21 11:58:28;;;;;;;9.50;2.40;;;;;;;5.20;92.79;103375.25;5091093;28;20432;-68
2022/01/21 12:00:54;;;;;;;9.55;2.50;;;;;;;5.26;92.49;103365.09;5069276;28;20056;-68
2022/01/21 12:03:23;;;;;;;11.10;2.95;;;;;;;5.35;92.21;103370.75;5071529;28;20114;-67
2022/01/21 12:05:50;;;;;;;11.27;2.05;;;;;;;5.41;92.65;103350.03;5089932;28;20035;-67
2022/01/21 12:08:15;;;;;;;8.50;2.38;;;;;;;5.43;91.57;103349.94;5089605;28;20039;-67
2022/01/21 12:10:42;;;;;;;5.75;2.50;;;;;;;5.41;92.07;103351.81;5089886;28;20044;-68
2022/01/21 12:13:16;;;;;;;14.18;4.47;;;;;;;5.39;91.94;103348.44;5090894;28;20039;-68